Time;durP1;ratioP1;P1;durP2;ratioP2;P2;SDS_P1;SDS_P2;PMS_P1;PMS_P2;Temp;Humidity;BMP_temperature;BMP_pressure;BME280_temperature;BME280_humidity;BME280_pressure;Samples;Min_cycle;Max_cycle;Signal;HPM_P1;HPM_P2
2021/10/28 05:40:27;;;;;;;37.72;21.30;;;;;;;7.77;100.00;101749.59;2607416;39;20528;-71
2021/10/28 13:48:49;;;;;;;17.55;10.05;;;;;;;14.89;100.00;101221.09;2611896;36;20059;-72
2021/10/28 14:00:41;;;;;;;15.65;9.05;;;;;;;14.85;100.00;101208.88;2608927;31;20057;-72
2021/10/28 14:23:07;;;;;;;18.25;9.77;;;;;;;14.66;100.00;101197.19;2610120;36;20480;-74
2021/10/28 14:26:18;;;;;;;15.25;9.43;;;;;;;14.77;100.00;101200.69;2608163;46;20050;-72
2021/10/28 14:32:00;;;;;;;16.73;9.20;;;;;;;14.64;100.00;101185.63;2611522;36;20053;-71
2021/10/28 15:29:08;;;;;;;25.67;10.77;;;;;;;13.92;100.00;101163.84;2611323;36;20038;-73
2021/10/28 15:34:44;;;;;;;21.02;9.90;;;;;;;13.74;100.00;101162.97;2612290;36;20157;-72
2021/10/28 16:00:31;;;;;;;18.17;10.30;;;;;;;13.25;100.00;101139.63;2612274;36;20030;-72
2021/10/28 16:22:04;;;;;;;13.98;9.60;;;;;;;12.62;100.00;101140.16;2618841;36;20114;-74
2021/10/28 16:24:44;;;;;;;13.90;8.77;;;;;;;12.53;100.00;101133.75;2609985;31;20042;-74
2021/10/28 16:27:13;;;;;;;17.05;9.10;;;;;;;12.56;100.00;101138.88;2611679;36;20445;-72
2021/10/28 16:29:42;;;;;;;20.30;9.50;;;;;;;12.41;100.00;101140.28;2612125;36;20037;-74
2021/10/28 16:32:10;;;;;;;13.48;8.82;;;;;;;12.29;100.00;101138.72;2611475;36;20565;-73
2021/10/28 16:34:42;;;;;;;17.33;9.43;;;;;;;12.20;100.00;101138.53;2611439;36;20038;-72
2021/10/28 16:37:13;;;;;;;14.23;9.20;;;;;;;12.27;100.00;101138.84;2612478;36;20536;-73
2021/10/28 16:39:41;;;;;;;15.02;9.18;;;;;;;12.19;100.00;101134.16;2611625;36;20057;-72
2021/10/28 16:42:13;;;;;;;16.00;9.63;;;;;;;12.09;100.00;101130.59;2611230;31;20030;-73
2021/10/28 16:44:44;;;;;;;19.33;10.55;;;;;;;11.94;100.00;101129.28;2611642;36;20586;-73
2021/10/28 16:47:12;;;;;;;19.60;10.85;;;;;;;11.88;100.00;101131.50;2612442;36;20030;-75
2021/10/28 16:49:43;;;;;;;16.13;10.10;;;;;;;11.88;100.00;101139.59;2612882;31;20495;-72
2021/10/28 16:52:12;;;;;;;20.67;13.07;;;;;;;11.90;100.00;101124.13;2612095;36;20042;-73
2021/10/28 16:54:40;;;;;;;14.90;10.15;;;;;;;11.80;100.00;101117.00;2611755;36;20076;-73
2021/10/28 16:57:08;;;;;;;19.88;12.70;;;;;;;11.72;100.00;101123.09;2611301;36;20060;-72
2021/10/28 16:59:36;;;;;;;19.60;12.05;;;;;;;11.65;100.00;101122.78;2612107;36;20038;-73
2021/10/28 17:02:05;;;;;;;15.85;11.55;;;;;;;11.61;100.00;101115.09;2611908;36;20114;-71
2021/10/28 17:07:03;;;;;;;16.13;11.18;;;;;;;11.68;100.00;101122.50;2611944;36;20571;-73
2021/10/28 17:09:31;;;;;;;17.90;10.57;;;;;;;11.64;100.00;101114.84;2611714;36;20116;-73
2021/10/28 17:12:00;;;;;;;20.85;12.05;;;;;;;11.57;100.00;101120.78;2612372;31;20472;-74
2021/10/28 17:14:28;;;;;;;20.10;11.73;;;;;;;11.60;100.00;101113.38;2611717;36;20984;-72
2021/10/28 17:16:56;;;;;;;22.92;12.38;;;;;;;11.54;100.00;101112.97;2610901;31;20042;-73
2021/10/28 17:19:26;;;;;;;18.27;11.40;;;;;;;11.54;100.00;101110.28;2611909;36;20523;-72
2021/10/28 17:21:54;;;;;;;18.45;10.93;;;;;;;11.54;100.00;101110.28;2611463;36;20034;-73
2021/10/28 17:24:34;;;;;;;18.50;10.48;;;;;;;11.51;100.00;101107.84;2611298;36;20065;-74
2021/10/28 17:27:02;;;;;;;17.17;10.65;;;;;;;11.39;100.00;101108.91;2611103;36;20121;-73
2021/10/28 17:29:31;;;;;;;15.57;11.13;;;;;;;11.51;100.00;101104.28;2609005;36;20030;-73
2021/10/28 17:31:59;;;;;;;14.10;9.60;;;;;;;11.53;100.00;101111.25;2595961;36;20138;-73
2021/10/28 17:34:30;;;;;;;16.73;10.53;;;;;;;11.62;100.00;101108.72;2594594;36;20088;-73
2021/10/28 17:36:58;;;;;;;14.20;10.60;;;;;;;11.67;100.00;101101.91;2597462;36;20038;-74
2021/10/28 17:39:29;;;;;;;17.07;10.40;;;;;;;11.59;100.00;101099.06;2602655;36;20528;-72
2021/10/28 17:41:59;;;;;;;14.32;9.63;;;;;;;11.53;100.00;101097.78;2603685;31;20571;-73
2021/10/28 17:44:37;;;;;;;14.15;9.40;;;;;;;11.63;100.00;101103.19;2604901;36;20035;-72
2021/10/28 17:47:06;;;;;;;11.60;8.57;;;;;;;11.67;100.00;101093.81;2600068;36;20037;-74
2021/10/28 17:49:36;;;;;;;14.60;8.98;;;;;;;11.68;100.00;101095.53;2604804;36;20057;-76
2021/10/28 17:52:05;;;;;;;13.07;9.05;;;;;;;11.71;100.00;101099.81;2604635;36;20636;-73
2021/10/28 17:54:36;;;;;;;;;;;;;;;11.61;100.00;101102.47;2607198;36;20502;-73
2021/10/28 17:57:06;;;;;;;12.90;8.35;;;;;;;11.63;100.00;101096.94;2603383;36;20038;-72
2021/10/28 17:59:34;;;;;;;;;;;;;;;11.51;100.00;101105.16;2603175;36;20038;-72
2021/10/28 18:02:02;;;;;;;16.02;9.68;;;;;;;11.56;100.00;101092.09;2601006;31;20816;-72
2021/10/28 18:04:31;;;;;;;14.47;9.50;;;;;;;11.57;100.00;101099.22;2603405;36;20030;-73
2021/10/28 18:06:59;;;;;;;18.50;10.63;;;;;;;11.44;100.00;101093.19;2602814;36;20204;-71
2021/10/28 18:09:27;;;;;;;21.03;10.67;;;;;;;11.51;100.00;101093.50;2604586;36;20145;-72
2021/10/28 18:11:59;;;;;;;26.92;12.60;;;;;;;11.50;100.00;101089.13;2603488;36;20795;-71
2021/10/28 18:14:28;;;;;;;21.00;10.68;;;;;;;11.44;100.00;101087.81;2604349;31;20534;-76
2021/10/28 18:16:57;;;;;;;24.05;11.32;;;;;;;11.41;100.00;101082.69;2599207;36;20439;-73
2021/10/28 18:19:25;;;;;;;24.10;11.15;;;;;;;11.44;100.00;101087.81;2604013;36;20038;-73
2021/10/28 18:21:56;;;;;;;15.30;10.27;;;;;;;11.48;100.00;101088.38;2600148;36;20057;-73
2021/10/28 18:24:35;;;;;;;13.75;9.80;;;;;;;11.55;100.00;101090.38;2601956;36;20054;-73
2021/10/28 18:27:12;;;;;;;18.48;11.02;;;;;;;11.50;100.00;101086.41;2600760;36;20149;-72
2021/10/28 18:29:41;;;;;;;19.55;11.13;;;;;;;11.61;100.00;101082.75;2598512;31;20400;-73
2021/10/28 18:32:09;;;;;;;21.35;11.57;;;;;;;11.55;100.00;101081.44;2606618;31;20161;-72
2021/10/28 18:34:39;;;;;;;20.35;10.75;;;;;;;11.43;100.00;101075.31;2605086;36;20031;-75
2021/10/28 18:37:08;;;;;;;20.35;10.38;;;;;;;11.46;100.00;101079.59;2607378;36;20031;-73
2021/10/28 18:39:36;;;;;;;16.73;10.40;;;;;;;11.43;100.00;101071.78;2617550;36;20031;-71
2021/10/28 18:42:10;;;;;;;14.27;9.70;;;;;;;11.47;100.00;101071.38;2604984;36;20054;-72
2021/10/28 18:44:39;;;;;;;15.82;9.05;;;;;;;11.54;100.00;101067.13;2608627;36;20051;-73
2021/10/28 18:47:08;;;;;;;18.02;9.80;;;;;;;11.57;100.00;101077.63;2603795;31;20038;-73
2021/10/28 18:49:36;;;;;;;15.20;9.02;;;;;;;11.43;100.00;101064.53;2599151;36;20030;-73
2021/10/28 18:52:05;;;;;;;15.32;8.65;;;;;;;11.51;100.00;101062.03;2604583;36;20076;-73
2021/10/28 18:54:34;;;;;;;14.02;8.05;;;;;;;11.52;100.00;101058.31;2622005;36;20037;-73
2021/10/28 18:57:04;;;;;;;10.67;7.43;;;;;;;11.45;100.00;101059.84;2602836;36;20038;-73
2021/10/28 18:59:40;;;;;;;13.02;8.32;;;;;;;11.43;100.00;101058.31;2601170;36;20403;-72
2021/10/28 19:02:13;;;;;;;11.73;8.18;;;;;;;11.36;100.00;101052.59;2605241;36;20598;-73
2021/10/28 19:04:41;;;;;;;12.82;8.65;;;;;;;11.34;100.00;101059.97;2603604;36;20057;-73
2021/10/28 19:07:11;;;;;;;11.85;8.65;;;;;;;11.40;100.00;101071.03;2602107;36;20125;-73
2021/10/28 19:09:40;;;;;;;13.02;8.63;;;;;;;11.44;100.00;101065.38;2621773;36;20160;-75
2021/10/28 19:12:09;;;;;;;11.43;8.37;;;;;;;11.37;100.00;101060.53;2607033;36;20049;-73
2021/10/28 19:14:45;;;;;;;14.68;9.48;;;;;;;11.39;100.00;101066.66;2605119;36;20402;-74
2021/10/28 19:17:14;;;;;;;14.55;9.13;;;;;;;11.39;100.00;101063.09;2602633;36;20031;-72
2021/10/28 19:19:44;;;;;;;14.77;10.77;;;;;;;11.36;100.00;101068.75;2606963;31;20476;-73
2021/10/28 19:22:12;;;;;;;11.25;8.63;;;;;;;11.15;100.00;101061.59;2621745;36;20042;-73
2021/10/28 19:24:40;;;;;;;11.35;8.20;;;;;;;11.19;100.00;101065.72;2606164;36;20037;-73
2021/10/28 19:27:09;;;;;;;13.15;8.13;;;;;;;11.25;100.00;101063.47;2607653;36;20165;-73
2021/10/28 19:29:51;;;;;;;10.90;8.45;;;;;;;11.31;100.00;101061.09;2602423;36;20122;-72
2021/10/28 19:32:23;;;;;;;12.73;8.90;;;;;;;11.20;100.00;101053.97;2621648;36;20521;-74
2021/10/28 19:34:52;;;;;;;11.82;8.38;;;;;;;11.12;100.00;101061.03;2606122;36;20031;-73
2021/10/28 19:37:33;;;;;;;11.90;8.63;;;;;;;11.15;100.00;101061.59;2603450;36;20269;-74
2021/10/28 19:40:19;;;;;;;12.55;9.00;;;;;;;11.07;100.00;101061.44;2603149;36;20057;-74
2021/10/28 19:48:29;;;;;;;;;;;;;;;11.11;100.00;101048.53;2605231;36;20050;-74
2021/10/28 19:50:58;;;;;;;16.48;9.43;;;;;;;11.10;100.00;101041.44;2603194;36;19958;-74
2021/10/28 19:53:26;;;;;;;30.23;13.40;;;;;;;11.15;100.00;101044.59;2605204;36;20069;-73
2021/10/28 19:56:08;;;;;;;30.52;12.77;;;;;;;11.12;100.00;101043.00;2600902;36;20046;-73
2021/10/28 19:58:38;;;;;;;22.90;12.15;;;;;;;11.11;100.00;101043.13;2597251;36;20053;-74
2021/10/28 20:01:20;;;;;;;27.88;12.90;;;;;;;11.08;100.00;101046.94;2598191;36;20394;-74
2021/10/28 20:04:11;;;;;;;25.60;11.57;;;;;;;11.13;100.00;101036.63;2598875;36;20598;-73
2021/10/28 20:06:56;;;;;;;20.90;11.75;;;;;;;11.16;100.00;101036.38;2605592;36;20042;-75
2021/10/28 20:15:01;;;;;;;22.15;10.73;;;;;;;11.17;100.00;101037.19;2596887;36;20035;-73
2021/10/28 20:20:18;;;;;;;23.55;11.38;;;;;;;11.17;100.00;101035.38;2604416;36;20042;-73
2021/10/28 20:22:50;;;;;;;22.98;11.63;;;;;;;11.10;100.00;101047.69;2603993;36;20034;-73
2021/10/28 20:25:21;;;;;;;29.95;12.90;;;;;;;11.11;100.00;101035.91;2602855;36;20436;-73
2021/10/28 20:27:54;;;;;;;31.38;12.88;;;;;;;11.21;100.00;101033.25;2603569;36;20035;-73
2021/10/28 20:30:28;;;;;;;28.48;11.90;;;;;;;11.07;100.00;101033.63;2597347;36;20042;-72
2021/10/28 20:33:13;;;;;;;30.88;13.15;;;;;;;11.09;100.00;101035.19;2597519;36;20674;-72
2021/10/28 20:38:28;;;;;;;21.20;11.55;;;;;;;11.04;100.00;101029.34;2623198;36;20038;-75
2021/10/28 20:40:57;;;;;;;17.05;10.32;;;;;;;11.01;100.00;101027.81;2601952;36;20041;-72
2021/10/28 20:43:29;;;;;;;16.57;10.13;;;;;;;11.03;100.00;101028.50;2599434;36;20038;-72
2021/10/28 20:46:08;;;;;;;13.35;9.20;;;;;;;10.87;100.00;101020.91;2595968;36;20319;-72
2021/10/28 20:48:41;;;;;;;13.30;9.55;;;;;;;10.89;100.00;101023.47;2595666;31;20357;-72
2021/10/28 20:51:19;;;;;;;13.20;9.20;;;;;;;10.80;100.00;101025.13;2600259;31;20038;-74
2021/10/28 20:53:48;;;;;;;14.70;9.83;;;;;;;10.82;100.00;101020.47;2598478;31;20087;-73
2021/10/28 20:56:16;;;;;;;13.30;8.98;;;;;;;10.74;100.00;101009.50;2596090;36;20038;-73
2021/10/28 20:58:45;;;;;;;12.50;9.10;;;;;;;10.66;100.00;101017.41;2604066;31;20519;-72
2021/10/28 21:03:54;;;;;;;13.15;9.57;;;;;;;10.58;100.00;101019.91;2607545;54;20780;-72
2021/10/28 21:06:23;;;;;;;13.40;9.05;;;;;;;10.60;100.00;101026.88;2601803;36;20031;-72
2021/10/28 21:08:52;;;;;;;14.68;9.95;;;;;;;10.54;100.00;101018.47;2603983;36;20046;-76
2021/10/28 21:11:20;;;;;;;18.55;10.48;;;;;;;10.64;100.00;101019.38;2601357;36;20157;-72
2021/10/28 21:13:48;;;;;;;19.23;11.45;;;;;;;10.63;100.00;101010.44;2599386;36;20145;-75
2021/10/28 21:16:17;;;;;;;16.05;9.73;;;;;;;10.64;100.00;101008.59;2598159;36;20035;-71
2021/10/28 21:18:45;;;;;;;16.13;10.93;;;;;;;10.54;100.00;101013.06;2602327;36;20038;-74
2021/10/28 21:21:17;;;;;;;13.35;9.43;;;;;;;10.62;100.00;101010.59;2603422;36;20122;-73
2021/10/28 21:23:45;;;;;;;13.05;9.70;;;;;;;10.58;100.00;101009.97;2605734;36;20030;-72
2021/10/28 21:26:13;;;;;;;14.40;9.85;;;;;;;10.64;100.00;101003.22;2604620;31;20035;-72
2021/10/28 21:28:42;;;;;;;14.52;10.35;;;;;;;10.54;100.00;101002.31;2605785;36;20054;-72
2021/10/28 21:31:11;;;;;;;15.98;11.20;;;;;;;10.55;100.00;101012.09;2602215;36;20133;-72
2021/10/28 21:33:43;;;;;;;18.25;10.50;;;;;;;10.47;100.00;101002.00;2602068;36;20509;-71
2021/10/28 21:36:13;;;;;;;23.83;12.93;;;;;;;10.43;100.00;101006.78;2599903;31;20536;-72
2021/10/28 21:38:44;;;;;;;23.17;12.10;;;;;;;10.48;100.00;101004.56;2603433;36;20034;-72
2021/10/28 21:41:12;;;;;;;29.63;12.70;;;;;;;10.58;100.00;101004.59;2604946;36;20130;-72
2021/10/28 21:43:44;;;;;;;21.33;12.23;;;;;;;10.45;100.00;101002.13;2602694;36;20130;-72
2021/10/28 21:46:13;;;;;;;24.85;12.77;;;;;;;10.36;100.00;100997.53;2594341;36;20041;-74
2021/10/28 21:48:41;;;;;;;20.38;11.20;;;;;;;10.46;100.00;100990.38;2598842;36;20039;-72
2021/10/28 21:51:10;;;;;;;20.13;12.30;;;;;;;10.42;100.00;100998.84;2599154;36;20447;-73
2021/10/28 21:53:40;;;;;;;24.90;12.40;;;;;;;10.41;100.00;100995.31;2602014;36;20034;-73
2021/10/28 21:56:19;;;;;;;32.58;12.93;;;;;;;10.49;100.00;100986.56;2621824;36;20625;-72
2021/10/28 22:01:43;;;;;;;26.70;11.75;;;;;;;10.42;100.00;100983.53;2621726;36;20046;-72
2021/10/28 22:07:16;;;;;;;20.98;11.32;;;;;;;10.37;100.00;100975.03;2603715;36;20034;-72
2021/10/28 22:26:02;;;;;;;15.88;9.70;;;;;;;10.10;100.00;100965.63;2603613;36;20538;-74
2021/10/28 22:28:33;;;;;;;15.68;9.95;;;;;;;10.12;100.00;100963.63;2605438;31;20041;-72
2021/10/28 22:31:03;;;;;;;16.80;10.32;;;;;;;10.14;100.00;100969.75;2600880;31;20499;-74
2021/10/28 22:33:31;;;;;;;14.48;9.98;;;;;;;10.07;100.00;100957.81;2604777;31;20496;-75
2021/10/28 22:36:04;;;;;;;15.10;9.93;;;;;;;10.06;100.00;100966.00;2607164;36;20533;-73
2021/10/28 22:38:35;;;;;;;18.67;10.45;;;;;;;9.99;100.00;100957.59;2606714;36;20867;-72
2021/10/28 22:41:09;;;;;;;17.67;10.32;;;;;;;9.93;100.00;100955.44;2608902;36;20034;-73
2021/10/28 22:43:40;;;;;;;16.67;11.40;;;;;;;9.86;100.00;100949.69;2610702;31;20041;-72
2021/10/28 22:46:08;;;;;;;21.40;10.15;;;;;;;9.86;100.00;100946.16;2604258;36;20069;-73
2021/10/28 22:48:37;;;;;;;20.27;9.90;;;;;;;9.86;100.00;100938.94;2604904;31;20804;-73
2021/10/28 22:51:05;;;;;;;14.88;10.13;;;;;;;9.90;100.00;100947.63;2602176;36;20042;-74
2021/10/28 22:53:34;;;;;;;18.08;11.23;;;;;;;9.82;100.00;100953.66;2599842;36;20463;-72
2021/10/28 22:56:03;;;;;;;19.02;11.73;;;;;;;9.78;100.00;100946.81;2604653;36;20065;-73
2021/10/28 22:58:35;;;;;;;21.52;11.32;;;;;;;9.71;100.00;100945.63;2607523;36;20038;-72
2021/10/28 23:01:13;;;;;;;26.90;13.40;;;;;;;9.70;100.00;100935.84;2605070;36;20257;-73
2021/10/28 23:04:02;;;;;;;27.97;12.83;;;;;;;9.75;100.00;100934.50;2622815;36;20045;-72
2021/10/28 23:20:38;;;;;;;27.90;13.50;;;;;;;9.74;100.00;100923.88;2605350;36;20038;-73
2021/10/28 23:22:40;;;;;;;29.08;14.45;;;;;;;9.70;100.00;100922.41;2605271;36;20054;-73
2021/10/28 23:25:09;;;;;;;24.17;11.65;;;;;;;9.66;100.00;100908.41;2623423;36;20141;-74
2021/10/28 23:30:14;;;;;;;25.25;12.82;;;;;;;9.58;100.00;100908.16;2612556;54;20558;-73
2021/10/28 23:32:45;;;;;;;22.70;13.47;;;;;;;9.66;100.00;100900.34;2601031;36;20102;-73
2021/10/28 23:35:13;;;;;;;21.83;12.45;;;;;;;9.70;100.00;100899.09;2604907;36;21013;-74
2021/10/28 23:37:41;;;;;;;24.10;12.00;;;;;;;9.71;100.00;100903.47;2603335;36;20040;-73
2021/10/28 23:40:11;;;;;;;28.63;13.90;;;;;;;9.73;100.00;100893.47;2606376;36;20153;-73
2021/10/28 23:42:41;;;;;;;18.98;12.57;;;;;;;9.78;100.00;100888.53;2603686;31;20174;-74
2021/10/28 23:45:11;;;;;;;30.65;12.98;;;;;;;9.69;100.00;100896.50;2600463;36;20042;-72
2021/10/28 23:47:40;;;;;;;22.27;12.13;;;;;;;9.69;100.00;100889.31;2605595;36;20062;-73
2021/10/28 23:50:11;;;;;;;26.30;12.60;;;;;;;9.68;100.00;100882.22;2605453;31;20510;-73
2021/10/28 23:52:40;;;;;;;27.02;13.48;;;;;;;9.85;100.00;100883.50;2606268;36;20042;-73
2021/10/28 23:55:09;;;;;;;24.30;12.45;;;;;;;9.83;100.00;100880.06;2602570;36;20546;-74
2021/10/28 23:57:38;;;;;;;22.35;13.05;;;;;;;9.81;100.00;100869.44;2601074;36;20157;-75
